sensor_id;sensor_type;location;lat;lon;timestamp;P1;durP1;ratioP1;P2;durP2;ratioP2
2313;SDS011;42279;51.388;7.000;2023-07-22T00:01:34;9.57;;;8.80;;
2313;SDS011;42279;51.388;7.000;2023-07-22T00:04:00;11.13;;;10.03;;
2313;SDS011;42279;51.388;7.000;2023-07-22T00:06:26;10.40;;;9.70;;
2313;SDS011;42279;51.388;7.000;2023-07-22T00:08:52;11.10;;;10.03;;
2313;SDS011;42279;51.388;7.000;2023-07-22T00:11:18;9.50;;;8.90;;
2313;SDS011;42279;51.388;7.000;2023-07-22T00:13:45;11.50;;;10.50;;
2313;SDS011;42279;51.388;7.000;2023-07-22T00:16:11;9.50;;;8.90;;
2313;SDS011;42279;51.388;7.000;2023-07-22T00:18:37;10.47;;;9.67;;
2313;SDS011;42279;51.388;7.000;2023-07-22T00:21:03;10.43;;;9.37;;
2313;SDS011;42279;51.388;7.000;2023-07-22T00:23:29;10.83;;;9.73;;
2313;SDS011;42279;51.388;7.000;2023-07-22T00:25:55;10.67;;;9.63;;
2313;SDS011;42279;51.388;7.000;2023-07-22T00:28:21;10.40;;;9.40;;
2313;SDS011;42279;51.388;7.000;2023-07-22T00:30:47;10.70;;;9.63;;
2313;SDS011;42279;51.388;7.000;2023-07-22T00:33:14;10.50;;;9.60;;
2313;SDS011;42279;51.388;7.000;2023-07-22T00:35:40;10.17;;;9.43;;
2313;SDS011;42279;51.388;7.000;2023-07-22T00:38:06;10.30;;;9.40;;
2313;SDS011;42279;51.388;7.000;2023-07-22T00:40:32;10.70;;;9.87;;
2313;SDS011;42279;51.388;7.000;2023-07-22T00:42:58;10.43;;;9.73;;
2313;SDS011;42279;51.388;7.000;2023-07-22T00:45:27;10.47;;;9.67;;
2313;SDS011;42279;51.388;7.000;2023-07-22T00:47:53;10.83;;;9.90;;
2313;SDS011;42279;51.388;7.000;2023-07-22T00:50:19;10.60;;;9.60;;
2313;SDS011;42279;51.388;7.000;2023-07-22T00:52:45;11.13;;;10.17;;
2313;SDS011;42279;51.388;7.000;2023-07-22T00:55:11;11.90;;;9.40;;
2313;SDS011;42279;51.388;7.000;2023-07-22T00:57:37;10.70;;;9.80;;
2313;SDS011;42279;51.388;7.000;2023-07-22T01:00:03;10.37;;;9.43;;
2313;SDS011;42279;51.388;7.000;2023-07-22T01:02:30;10.33;;;9.50;;
2313;SDS011;42279;51.388;7.000;2023-07-22T01:04:56;10.07;;;9.17;;
2313;SDS011;42279;51.388;7.000;2023-07-22T01:07:22;11.47;;;10.40;;
2313;SDS011;42279;51.388;7.000;2023-07-22T01:09:48;11.20;;;9.23;;
2313;SDS011;42279;51.388;7.000;2023-07-22T01:15:18;11.00;;;9.90;;
2313;SDS011;42279;51.388;7.000;2023-07-22T01:17:44;9.80;;;9.00;;
2313;SDS011;42279;51.388;7.000;2023-07-22T01:20:10;9.20;;;8.60;;
2313;SDS011;42279;51.388;7.000;2023-07-22T01:22:36;10.77;;;9.80;;
2313;SDS011;42279;51.388;7.000;2023-07-22T01:25:07;10.27;;;9.47;;
2313;SDS011;42279;51.388;7.000;2023-07-22T01:27:33;9.50;;;8.80;;
2313;SDS011;42279;51.388;7.000;2023-07-22T01:29:59;10.23;;;8.83;;
2313;SDS011;42279;51.388;7.000;2023-07-22T01:32:27;9.80;;;9.00;;
2313;SDS011;42279;51.388;7.000;2023-07-22T01:34:53;10.03;;;9.30;;
2313;SDS011;42279;51.388;7.000;2023-07-22T01:37:19;10.43;;;9.60;;
2313;SDS011;42279;51.388;7.000;2023-07-22T01:39:45;9.17;;;8.53;;
2313;SDS011;42279;51.388;7.000;2023-07-22T01:42:11;9.90;;;9.00;;
2313;SDS011;42279;51.388;7.000;2023-07-22T01:44:39;9.80;;;9.07;;
2313;SDS011;42279;51.388;7.000;2023-07-22T01:47:05;10.77;;;9.90;;
2313;SDS011;42279;51.388;7.000;2023-07-22T01:49:31;10.83;;;10.03;;
2313;SDS011;42279;51.388;7.000;2023-07-22T01:51:58;11.20;;;10.40;;
2313;SDS011;42279;51.388;7.000;2023-07-22T01:54:25;10.67;;;9.70;;
2313;SDS011;42279;51.388;7.000;2023-07-22T01:56:51;11.13;;;10.10;;
2313;SDS011;42279;51.388;7.000;2023-07-22T01:59:17;9.83;;;8.90;;
2313;SDS011;42279;51.388;7.000;2023-07-22T02:01:43;10.20;;;9.30;;
2313;SDS011;42279;51.388;7.000;2023-07-22T02:04:09;9.80;;;8.53;;
2313;SDS011;42279;51.388;7.000;2023-07-22T02:06:35;12.40;;;11.00;;
2313;SDS011;42279;51.388;7.000;2023-07-22T02:09:02;9.43;;;8.70;;
2313;SDS011;42279;51.388;7.000;2023-07-22T02:11:33;9.77;;;8.87;;
2313;SDS011;42279;51.388;7.000;2023-07-22T02:14:00;10.87;;;10.00;;
2313;SDS011;42279;51.388;7.000;2023-07-22T02:16:26;14.73;;;9.67;;
2313;SDS011;42279;51.388;7.000;2023-07-22T02:18:52;9.07;;;8.30;;
2313;SDS011;42279;51.388;7.000;2023-07-22T02:21:18;10.03;;;9.10;;
2313;SDS011;42279;51.388;7.000;2023-07-22T02:23:44;10.20;;;9.40;;
2313;SDS011;42279;51.388;7.000;2023-07-22T02:26:10;10.00;;;9.20;;
2313;SDS011;42279;51.388;7.000;2023-07-22T02:28:36;11.53;;;8.90;;
2313;SDS011;42279;51.388;7.000;2023-07-22T02:31:02;11.23;;;9.90;;
2313;SDS011;42279;51.388;7.000;2023-07-22T02:33:31;9.70;;;8.83;;
2313;SDS011;42279;51.388;7.000;2023-07-22T02:35:57;9.30;;;8.60;;
2313;SDS011;42279;51.388;7.000;2023-07-22T02:38:23;10.63;;;9.73;;
2313;SDS011;42279;51.388;7.000;2023-07-22T02:40:49;12.90;;;9.60;;
2313;SDS011;42279;51.388;7.000;2023-07-22T02:43:15;10.10;;;9.30;;
2313;SDS011;42279;51.388;7.000;2023-07-22T02:45:41;12.50;;;8.80;;
2313;SDS011;42279;51.388;7.000;2023-07-22T02:48:07;9.83;;;9.03;;
2313;SDS011;42279;51.388;7.000;2023-07-22T02:50:34;9.60;;;8.63;;
2313;SDS011;42279;51.388;7.000;2023-07-22T02:53:02;14.67;;;8.77;;
2313;SDS011;42279;51.388;7.000;2023-07-22T02:55:28;8.90;;;8.10;;
2313;SDS011;42279;51.388;7.000;2023-07-22T02:57:54;10.00;;;9.20;;
2313;SDS011;42279;51.388;7.000;2023-07-22T03:00:20;9.37;;;8.57;;
2313;SDS011;42279;51.388;7.000;2023-07-22T03:02:49;8.70;;;8.10;;
2313;SDS011;42279;51.388;7.000;2023-07-22T03:05:17;8.97;;;8.17;;
2313;SDS011;42279;51.388;7.000;2023-07-22T03:07:43;8.60;;;8.00;;
2313;SDS011;42279;51.388;7.000;2023-07-22T03:10:09;9.57;;;8.87;;
2313;SDS011;42279;51.388;7.000;2023-07-22T03:12:35;8.67;;;7.97;;
2313;SDS011;42279;51.388;7.000;2023-07-22T03:15:02;10.17;;;9.07;;
2313;SDS011;42279;51.388;7.000;2023-07-22T03:17:29;9.53;;;8.63;;
2313;SDS011;42279;51.388;7.000;2023-07-22T03:19:55;8.93;;;8.23;;
2313;SDS011;42279;51.388;7.000;2023-07-22T03:22:21;8.53;;;8.00;;
2313;SDS011;42279;51.388;7.000;2023-07-22T03:24:47;9.23;;;8.43;;
2313;SDS011;42279;51.388;7.000;2023-07-22T03:27:14;8.97;;;8.07;;
2313;SDS011;42279;51.388;7.000;2023-07-22T03:29:42;7.90;;;7.47;;
2313;SDS011;42279;51.388;7.000;2023-07-22T03:32:08;8.87;;;8.17;;
2313;SDS011;42279;51.388;7.000;2023-07-22T03:34:34;8.40;;;7.60;;
2313;SDS011;42279;51.388;7.000;2023-07-22T03:37:00;9.13;;;8.30;;
2313;SDS011;42279;51.388;7.000;2023-07-22T03:39:26;10.47;;;8.10;;
2313;SDS011;42279;51.388;7.000;2023-07-22T03:41:52;9.50;;;8.80;;
2313;SDS011;42279;51.388;7.000;2023-07-22T03:44:18;7.90;;;7.23;;
2313;SDS011;42279;51.388;7.000;2023-07-22T03:46:44;9.40;;;8.50;;
2313;SDS011;42279;51.388;7.000;2023-07-22T03:49:10;8.23;;;7.73;;
2313;SDS011;42279;51.388;7.000;2023-07-22T03:51:36;8.63;;;8.00;;
2313;SDS011;42279;51.388;7.000;2023-07-22T03:54:02;9.00;;;8.20;;
2313;SDS011;42279;51.388;7.000;2023-07-22T03:56:28;8.43;;;7.67;;
2313;SDS011;42279;51.388;7.000;2023-07-22T03:58:54;8.77;;;7.90;;
2313;SDS011;42279;51.388;7.000;2023-07-22T04:01:20;8.47;;;7.97;;
2313;SDS011;42279;51.388;7.000;2023-07-22T04:03:46;9.10;;;8.40;;
2313;SDS011;42279;51.388;7.000;2023-07-22T04:06:12;7.77;;;7.13;;
2313;SDS011;42279;51.388;7.000;2023-07-22T04:08:38;8.10;;;7.50;;
2313;SDS011;42279;51.388;7.000;2023-07-22T04:11:04;8.40;;;7.70;;
2313;SDS011;42279;51.388;7.000;2023-07-22T04:13:30;8.00;;;7.50;;
2313;SDS011;42279;51.388;7.000;2023-07-22T04:15:56;8.43;;;7.73;;
2313;SDS011;42279;51.388;7.000;2023-07-22T04:18:22;8.07;;;7.30;;
2313;SDS011;42279;51.388;7.000;2023-07-22T04:20:54;7.87;;;7.20;;
2313;SDS011;42279;51.388;7.000;2023-07-22T04:23:21;8.17;;;7.60;;
2313;SDS011;42279;51.388;7.000;2023-07-22T04:25:47;7.97;;;7.17;;
2313;SDS011;42279;51.388;7.000;2023-07-22T04:28:13;7.17;;;6.67;;
2313;SDS011;42279;51.388;7.000;2023-07-22T04:30:40;8.03;;;7.30;;
2313;SDS011;42279;51.388;7.000;2023-07-22T04:33:06;8.07;;;7.63;;
2313;SDS011;42279;51.388;7.000;2023-07-22T04:35:37;8.53;;;7.73;;
2313;SDS011;42279;51.388;7.000;2023-07-22T04:38:03;12.27;;;8.10;;
2313;SDS011;42279;51.388;7.000;2023-07-22T04:40:29;8.10;;;7.50;;
2313;SDS011;42279;51.388;7.000;2023-07-22T04:42:56;7.50;;;6.90;;
2313;SDS011;42279;51.388;7.000;2023-07-22T04:45:25;9.13;;;7.93;;
2313;SDS011;42279;51.388;7.000;2023-07-22T04:47:52;8.07;;;7.37;;
2313;SDS011;42279;51.388;7.000;2023-07-22T04:50:18;8.37;;;7.83;;
2313;SDS011;42279;51.388;7.000;2023-07-22T04:52:44;9.00;;;8.00;;
2313;SDS011;42279;51.388;7.000;2023-07-22T04:55:11;8.07;;;7.47;;
2313;SDS011;42279;51.388;7.000;2023-07-22T04:57:40;8.00;;;6.90;;
2313;SDS011;42279;51.388;7.000;2023-07-22T05:00:07;7.63;;;7.13;;
2313;SDS011;42279;51.388;7.000;2023-07-22T05:02:34;8.33;;;7.67;;
2313;SDS011;42279;51.388;7.000;2023-07-22T05:05:00;8.10;;;7.50;;
2313;SDS011;42279;51.388;7.000;2023-07-22T05:07:26;8.27;;;7.53;;
2313;SDS011;42279;51.388;7.000;2023-07-22T05:09:52;7.47;;;6.80;;
2313;SDS011;42279;51.388;7.000;2023-07-22T05:12:18;9.33;;;8.63;;
2313;SDS011;42279;51.388;7.000;2023-07-22T05:14:45;8.37;;;7.60;;
2313;SDS011;42279;51.388;7.000;2023-07-22T05:17:11;8.30;;;7.67;;
2313;SDS011;42279;51.388;7.000;2023-07-22T05:19:37;9.37;;;8.67;;
2313;SDS011;42279;51.388;7.000;2023-07-22T05:22:03;8.60;;;7.90;;
2313;SDS011;42279;51.388;7.000;2023-07-22T05:24:29;8.43;;;7.80;;
2313;SDS011;42279;51.388;7.000;2023-07-22T05:26:55;8.67;;;8.03;;
2313;SDS011;42279;51.388;7.000;2023-07-22T05:29:21;9.67;;;8.40;;
2313;SDS011;42279;51.388;7.000;2023-07-22T05:31:47;9.10;;;8.50;;
2313;SDS011;42279;51.388;7.000;2023-07-22T05:34:13;8.60;;;8.10;;
2313;SDS011;42279;51.388;7.000;2023-07-22T05:36:39;8.17;;;7.47;;
2313;SDS011;42279;51.388;7.000;2023-07-22T05:39:05;8.90;;;8.20;;
2313;SDS011;42279;51.388;7.000;2023-07-22T05:41:34;7.43;;;6.90;;
2313;SDS011;42279;51.388;7.000;2023-07-22T05:44:00;8.70;;;8.10;;
2313;SDS011;42279;51.388;7.000;2023-07-22T05:46:26;8.47;;;7.93;;
2313;SDS011;42279;51.388;7.000;2023-07-22T05:48:52;8.23;;;7.60;;
2313;SDS011;42279;51.388;7.000;2023-07-22T05:51:18;7.83;;;7.43;;
2313;SDS011;42279;51.388;7.000;2023-07-22T05:53:44;13.23;;;7.63;;
2313;SDS011;42279;51.388;7.000;2023-07-22T05:56:10;7.90;;;7.40;;
2313;SDS011;42279;51.388;7.000;2023-07-22T05:58:36;9.67;;;8.83;;
2313;SDS011;42279;51.388;7.000;2023-07-22T06:01:02;7.90;;;7.50;;
2313;SDS011;42279;51.388;7.000;2023-07-22T06:03:28;8.60;;;8.10;;
2313;SDS011;42279;51.388;7.000;2023-07-22T06:05:54;8.80;;;8.20;;
2313;SDS011;42279;51.388;7.000;2023-07-22T06:08:20;8.30;;;7.70;;
2313;SDS011;42279;51.388;7.000;2023-07-22T06:10:46;8.40;;;7.90;;
2313;SDS011;42279;51.388;7.000;2023-07-22T06:13:12;8.50;;;7.90;;
2313;SDS011;42279;51.388;7.000;2023-07-22T06:15:38;7.60;;;7.20;;
2313;SDS011;42279;51.388;7.000;2023-07-22T06:18:04;9.37;;;8.60;;
2313;SDS011;42279;51.388;7.000;2023-07-22T06:20:33;9.40;;;8.53;;
2313;SDS011;42279;51.388;7.000;2023-07-22T06:22:59;8.90;;;8.20;;
2313;SDS011;42279;51.388;7.000;2023-07-22T06:25:25;7.47;;;6.97;;
2313;SDS011;42279;51.388;7.000;2023-07-22T06:27:51;7.60;;;7.00;;
2313;SDS011;42279;51.388;7.000;2023-07-22T06:30:19;7.93;;;7.43;;
2313;SDS011;42279;51.388;7.000;2023-07-22T06:32:45;8.40;;;7.77;;
2313;SDS011;42279;51.388;7.000;2023-07-22T06:35:11;8.53;;;7.93;;
2313;SDS011;42279;51.388;7.000;2023-07-22T06:37:37;7.73;;;7.23;;
2313;SDS011;42279;51.388;7.000;2023-07-22T06:40:03;9.13;;;8.43;;
2313;SDS011;42279;51.388;7.000;2023-07-22T06:42:29;8.00;;;7.50;;
2313;SDS011;42279;51.388;7.000;2023-07-22T06:44:55;8.77;;;8.13;;
2313;SDS011;42279;51.388;7.000;2023-07-22T06:47:21;8.67;;;8.00;;
2313;SDS011;42279;51.388;7.000;2023-07-22T06:49:47;7.97;;;7.47;;
2313;SDS011;42279;51.388;7.000;2023-07-22T06:52:13;8.30;;;7.77;;
2313;SDS011;42279;51.388;7.000;2023-07-22T06:54:39;8.10;;;7.43;;
2313;SDS011;42279;51.388;7.000;2023-07-22T06:57:05;8.30;;;7.80;;
2313;SDS011;42279;51.388;7.000;2023-07-22T06:59:31;8.53;;;8.03;;
2313;SDS011;42279;51.388;7.000;2023-07-22T07:01:58;10.10;;;9.43;;
2313;SDS011;42279;51.388;7.000;2023-07-22T07:04:24;8.87;;;8.43;;
2313;SDS011;42279;51.388;7.000;2023-07-22T07:06:50;9.13;;;8.53;;
2313;SDS011;42279;51.388;7.000;2023-07-22T07:09:16;8.97;;;8.47;;
2313;SDS011;42279;51.388;7.000;2023-07-22T07:11:42;8.50;;;7.70;;
2313;SDS011;42279;51.388;7.000;2023-07-22T07:14:08;8.77;;;8.17;;
2313;SDS011;42279;51.388;7.000;2023-07-22T07:16:34;8.20;;;7.70;;
2313;SDS011;42279;51.388;7.000;2023-07-22T07:19:00;9.57;;;8.87;;
2313;SDS011;42279;51.388;7.000;2023-07-22T07:21:27;9.20;;;8.60;;
2313;SDS011;42279;51.388;7.000;2023-07-22T07:23:53;8.30;;;7.80;;
2313;SDS011;42279;51.388;7.000;2023-07-22T07:26:20;8.67;;;7.93;;
2313;SDS011;42279;51.388;7.000;2023-07-22T07:28:46;8.73;;;8.23;;
2313;SDS011;42279;51.388;7.000;2023-07-22T07:31:12;8.10;;;7.60;;
2313;SDS011;42279;51.388;7.000;2023-07-22T07:33:38;9.97;;;8.10;;
2313;SDS011;42279;51.388;7.000;2023-07-22T07:36:04;8.63;;;8.00;;
2313;SDS011;42279;51.388;7.000;2023-07-22T07:38:30;8.03;;;7.57;;
2313;SDS011;42279;51.388;7.000;2023-07-22T07:40:58;9.00;;;8.30;;
2313;SDS011;42279;51.388;7.000;2023-07-22T07:43:24;9.37;;;8.47;;
2313;SDS011;42279;51.388;7.000;2023-07-22T07:45:50;9.03;;;8.23;;
2313;SDS011;42279;51.388;7.000;2023-07-22T07:48:16;9.97;;;9.10;;
2313;SDS011;42279;51.388;7.000;2023-07-22T07:50:42;8.67;;;8.17;;
2313;SDS011;42279;51.388;7.000;2023-07-22T07:53:08;9.10;;;8.50;;
2313;SDS011;42279;51.388;7.000;2023-07-22T07:55:34;8.80;;;8.20;;
2313;SDS011;42279;51.388;7.000;2023-07-22T07:58:00;8.70;;;8.10;;
2313;SDS011;42279;51.388;7.000;2023-07-22T08:00:26;8.30;;;7.60;;
2313;SDS011;42279;51.388;7.000;2023-07-22T08:02:53;8.70;;;7.90;;
2313;SDS011;42279;51.388;7.000;2023-07-22T08:05:19;9.40;;;8.67;;
2313;SDS011;42279;51.388;7.000;2023-07-22T08:07:45;8.53;;;8.03;;
2313;SDS011;42279;51.388;7.000;2023-07-22T08:10:11;8.47;;;8.00;;
2313;SDS011;42279;51.388;7.000;2023-07-22T08:12:37;8.00;;;7.43;;
2313;SDS011;42279;51.388;7.000;2023-07-22T08:15:04;8.40;;;7.80;;
2313;SDS011;42279;51.388;7.000;2023-07-22T08:17:30;8.53;;;7.93;;
2313;SDS011;42279;51.388;7.000;2023-07-22T08:19:56;8.33;;;7.73;;
2313;SDS011;42279;51.388;7.000;2023-07-22T08:22:22;7.87;;;7.20;;
2313;SDS011;42279;51.388;7.000;2023-07-22T08:24:48;9.10;;;8.27;;
2313;SDS011;42279;51.388;7.000;2023-07-22T08:27:14;7.70;;;7.20;;
2313;SDS011;42279;51.388;7.000;2023-07-22T08:29:40;9.13;;;8.13;;
2313;SDS011;42279;51.388;7.000;2023-07-22T08:32:06;7.93;;;7.13;;
2313;SDS011;42279;51.388;7.000;2023-07-22T08:34:32;9.90;;;9.20;;
2313;SDS011;42279;51.388;7.000;2023-07-22T08:36:58;8.57;;;8.00;;
2313;SDS011;42279;51.388;7.000;2023-07-22T08:39:24;9.47;;;8.93;;
2313;SDS011;42279;51.388;7.000;2023-07-22T08:41:50;7.80;;;7.40;;
2313;SDS011;42279;51.388;7.000;2023-07-22T08:44:18;7.87;;;7.47;;
2313;SDS011;42279;51.388;7.000;2023-07-22T08:46:45;8.30;;;7.90;;
2313;SDS011;42279;51.388;7.000;2023-07-22T08:49:12;8.73;;;7.93;;
2313;SDS011;42279;51.388;7.000;2023-07-22T08:51:39;8.47;;;7.80;;
2313;SDS011;42279;51.388;7.000;2023-07-22T08:54:05;9.80;;;7.17;;
2313;SDS011;42279;51.388;7.000;2023-07-22T08:56:31;9.17;;;8.43;;
2313;SDS011;42279;51.388;7.000;2023-07-22T08:58:57;7.63;;;6.97;;
2313;SDS011;42279;51.388;7.000;2023-07-22T09:01:23;6.17;;;5.97;;
2313;SDS011;42279;51.388;7.000;2023-07-22T09:03:53;6.67;;;6.30;;
2313;SDS011;42279;51.388;7.000;2023-07-22T09:06:21;7.87;;;7.17;;
2313;SDS011;42279;51.388;7.000;2023-07-22T09:08:47;6.13;;;5.83;;
2313;SDS011;42279;51.388;7.000;2023-07-22T09:11:14;5.90;;;5.70;;
2313;SDS011;42279;51.388;7.000;2023-07-22T09:13:40;7.40;;;7.10;;
2313;SDS011;42279;51.388;7.000;2023-07-22T09:16:07;6.00;;;5.60;;
2313;SDS011;42279;51.388;7.000;2023-07-22T09:18:33;6.57;;;6.00;;
2313;SDS011;42279;51.388;7.000;2023-07-22T09:20:59;6.50;;;6.10;;
2313;SDS011;42279;51.388;7.000;2023-07-22T09:23:32;7.27;;;6.53;;
2313;SDS011;42279;51.388;7.000;2023-07-22T09:26:07;11.90;;;11.10;;
2313;SDS011;42279;51.388;7.000;2023-07-22T09:31:15;7.40;;;6.90;;
2313;SDS011;42279;51.388;7.000;2023-07-22T09:33:41;7.40;;;6.90;;
2313;SDS011;42279;51.388;7.000;2023-07-22T09:36:09;6.60;;;5.97;;
2313;SDS011;42279;51.388;7.000;2023-07-22T09:38:35;6.10;;;5.80;;
2313;SDS011;42279;51.388;7.000;2023-07-22T09:41:01;5.80;;;5.50;;
2313;SDS011;42279;51.388;7.000;2023-07-22T09:43:27;5.80;;;5.13;;
2313;SDS011;42279;51.388;7.000;2023-07-22T09:45:53;6.50;;;6.10;;
2313;SDS011;42279;51.388;7.000;2023-07-22T09:48:20;6.40;;;6.13;;
2313;SDS011;42279;51.388;7.000;2023-07-22T09:50:55;6.07;;;5.87;;
2313;SDS011;42279;51.388;7.000;2023-07-22T09:53:21;5.23;;;5.00;;
2313;SDS011;42279;51.388;7.000;2023-07-22T09:55:47;5.80;;;5.47;;
2313;SDS011;42279;51.388;7.000;2023-07-22T09:58:13;6.40;;;6.00;;
2313;SDS011;42279;51.388;7.000;2023-07-22T10:00:39;5.17;;;4.77;;
2313;SDS011;42279;51.388;7.000;2023-07-22T10:03:09;5.43;;;5.23;;
2313;SDS011;42279;51.388;7.000;2023-07-22T10:05:37;6.20;;;5.77;;
2313;SDS011;42279;51.388;7.000;2023-07-22T10:08:04;6.63;;;5.67;;
2313;SDS011;42279;51.388;7.000;2023-07-22T10:10:32;6.13;;;5.83;;
2313;SDS011;42279;51.388;7.000;2023-07-22T10:12:58;5.53;;;5.13;;
2313;SDS011;42279;51.388;7.000;2023-07-22T10:15:25;4.73;;;4.53;;
2313;SDS011;42279;51.388;7.000;2023-07-22T10:17:52;5.40;;;5.00;;
2313;SDS011;42279;51.388;7.000;2023-07-22T10:20:19;5.50;;;4.97;;
2313;SDS011;42279;51.388;7.000;2023-07-22T10:22:46;3.73;;;3.60;;
2313;SDS011;42279;51.388;7.000;2023-07-22T10:25:14;4.50;;;4.40;;
2313;SDS011;42279;51.388;7.000;2023-07-22T10:27:40;4.77;;;4.63;;
2313;SDS011;42279;51.388;7.000;2023-07-22T10:30:13;5.57;;;5.07;;
2313;SDS011;42279;51.388;7.000;2023-07-22T10:32:40;4.37;;;4.27;;
2313;SDS011;42279;51.388;7.000;2023-07-22T10:35:10;4.30;;;4.10;;
2313;SDS011;42279;51.388;7.000;2023-07-22T10:37:36;4.07;;;3.97;;
2313;SDS011;42279;51.388;7.000;2023-07-22T10:43:04;3.83;;;3.67;;
2313;SDS011;42279;51.388;7.000;2023-07-22T10:45:32;3.10;;;2.90;;
2313;SDS011;42279;51.388;7.000;2023-07-22T10:48:08;3.60;;;3.60;;
2313;SDS011;42279;51.388;7.000;2023-07-22T10:50:41;4.10;;;3.67;;
2313;SDS011;42279;51.388;7.000;2023-07-22T10:53:11;4.10;;;3.47;;
2313;SDS011;42279;51.388;7.000;2023-07-22T10:56:02;3.00;;;3.00;;
2313;SDS011;42279;51.388;7.000;2023-07-22T10:58:29;3.70;;;3.50;;
2313;SDS011;42279;51.388;7.000;2023-07-22T11:00:56;4.70;;;3.80;;
2313;SDS011;42279;51.388;7.000;2023-07-22T11:03:22;4.03;;;3.83;;
2313;SDS011;42279;51.388;7.000;2023-07-22T11:05:51;3.00;;;3.00;;
2313;SDS011;42279;51.388;7.000;2023-07-22T11:08:34;2.90;;;2.90;;
2313;SDS011;42279;51.388;7.000;2023-07-22T11:11:01;2.80;;;2.70;;
2313;SDS011;42279;51.388;7.000;2023-07-22T11:13:28;3.30;;;3.23;;
2313;SDS011;42279;51.388;7.000;2023-07-22T11:15:57;3.27;;;3.27;;
2313;SDS011;42279;51.388;7.000;2023-07-22T11:18:35;2.73;;;2.73;;
2313;SDS011;42279;51.388;7.000;2023-07-22T11:21:01;3.60;;;3.50;;
2313;SDS011;42279;51.388;7.000;2023-07-22T11:23:27;3.37;;;3.37;;
2313;SDS011;42279;51.388;7.000;2023-07-22T11:25:53;2.80;;;2.80;;
2313;SDS011;42279;51.388;7.000;2023-07-22T11:28:19;3.27;;;3.17;;
2313;SDS011;42279;51.388;7.000;2023-07-22T11:30:45;3.00;;;3.00;;
2313;SDS011;42279;51.388;7.000;2023-07-22T11:33:11;3.10;;;3.00;;
2313;SDS011;42279;51.388;7.000;2023-07-22T11:35:37;3.00;;;2.80;;
2313;SDS011;42279;51.388;7.000;2023-07-22T11:38:03;2.70;;;2.60;;
2313;SDS011;42279;51.388;7.000;2023-07-22T11:40:32;3.00;;;3.00;;
2313;SDS011;42279;51.388;7.000;2023-07-22T11:42:58;3.40;;;3.30;;
2313;SDS011;42279;51.388;7.000;2023-07-22T11:45:25;2.53;;;2.53;;
2313;SDS011;42279;51.388;7.000;2023-07-22T11:47:51;2.30;;;2.30;;
2313;SDS011;42279;51.388;7.000;2023-07-22T11:50:17;3.40;;;3.40;;
2313;SDS011;42279;51.388;7.000;2023-07-22T11:52:49;4.23;;;2.80;;
2313;SDS011;42279;51.388;7.000;2023-07-22T11:55:15;2.30;;;2.30;;
2313;SDS011;42279;51.388;7.000;2023-07-22T11:57:41;2.47;;;2.47;;
2313;SDS011;42279;51.388;7.000;2023-07-22T12:00:07;2.40;;;2.40;;
2313;SDS011;42279;51.388;7.000;2023-07-22T12:02:35;3.00;;;2.90;;
2313;SDS011;42279;51.388;7.000;2023-07-22T12:05:02;3.27;;;3.07;;
2313;SDS011;42279;51.388;7.000;2023-07-22T12:07:33;3.40;;;3.30;;
2313;SDS011;42279;51.388;7.000;2023-07-22T12:10:00;2.47;;;2.37;;
2313;SDS011;42279;51.388;7.000;2023-07-22T12:12:33;3.37;;;2.70;;
2313;SDS011;42279;51.388;7.000;2023-07-22T12:15:18;2.40;;;2.30;;
2313;SDS011;42279;51.388;7.000;2023-07-22T12:17:45;2.13;;;2.13;;
2313;SDS011;42279;51.388;7.000;2023-07-22T12:20:11;2.53;;;2.43;;
2313;SDS011;42279;51.388;7.000;2023-07-22T12:22:37;2.70;;;2.60;;
2313;SDS011;42279;51.388;7.000;2023-07-22T12:25:04;2.73;;;2.73;;
2313;SDS011;42279;51.388;7.000;2023-07-22T12:27:31;2.30;;;2.30;;
2313;SDS011;42279;51.388;7.000;2023-07-22T12:29:56;2.53;;;2.30;;
2313;SDS011;42279;51.388;7.000;2023-07-22T12:32:22;6.53;;;6.23;;
2313;SDS011;42279;51.388;7.000;2023-07-22T12:34:48;2.70;;;2.70;;
2313;SDS011;42279;51.388;7.000;2023-07-22T12:37:14;3.00;;;3.00;;
2313;SDS011;42279;51.388;7.000;2023-07-22T12:39:40;2.63;;;2.53;;
2313;SDS011;42279;51.388;7.000;2023-07-22T12:42:06;3.70;;;3.00;;
2313;SDS011;42279;51.388;7.000;2023-07-22T12:44:33;3.20;;;3.10;;
2313;SDS011;42279;51.388;7.000;2023-07-22T12:46:59;2.70;;;2.60;;
2313;SDS011;42279;51.388;7.000;2023-07-22T12:49:25;2.83;;;2.83;;
2313;SDS011;42279;51.388;7.000;2023-07-22T12:51:51;3.37;;;3.20;;
2313;SDS011;42279;51.388;7.000;2023-07-22T12:54:17;2.90;;;2.90;;
2313;SDS011;42279;51.388;7.000;2023-07-22T12:56:43;4.37;;;3.67;;
2313;SDS011;42279;51.388;7.000;2023-07-22T12:59:10;3.57;;;3.47;;
2313;SDS011;42279;51.388;7.000;2023-07-22T13:01:36;3.03;;;2.93;;
2313;SDS011;42279;51.388;7.000;2023-07-22T13:04:04;2.73;;;2.60;;
2313;SDS011;42279;51.388;7.000;2023-07-22T13:06:30;3.20;;;3.00;;
2313;SDS011;42279;51.388;7.000;2023-07-22T13:08:56;3.07;;;2.97;;
2313;SDS011;42279;51.388;7.000;2023-07-22T13:11:22;3.40;;;3.40;;
2313;SDS011;42279;51.388;7.000;2023-07-22T13:13:48;3.73;;;3.40;;
2313;SDS011;42279;51.388;7.000;2023-07-22T13:16:15;3.60;;;3.60;;
2313;SDS011;42279;51.388;7.000;2023-07-22T13:18:41;3.77;;;3.43;;
2313;SDS011;42279;51.388;7.000;2023-07-22T13:23:57;3.10;;;3.00;;
2313;SDS011;42279;51.388;7.000;2023-07-22T13:26:23;3.10;;;3.10;;
2313;SDS011;42279;51.388;7.000;2023-07-22T13:28:48;3.10;;;3.00;;
2313;SDS011;42279;51.388;7.000;2023-07-22T13:31:15;3.17;;;3.07;;
2313;SDS011;42279;51.388;7.000;2023-07-22T13:33:41;3.90;;;3.53;;
2313;SDS011;42279;51.388;7.000;2023-07-22T13:36:07;3.47;;;3.10;;
2313;SDS011;42279;51.388;7.000;2023-07-22T13:38:34;3.30;;;3.20;;
2313;SDS011;42279;51.388;7.000;2023-07-22T13:41:07;2.83;;;2.83;;
2313;SDS011;42279;51.388;7.000;2023-07-22T13:43:41;3.63;;;3.43;;
2313;SDS011;42279;51.388;7.000;2023-07-22T13:46:08;3.07;;;3.07;;
2313;SDS011;42279;51.388;7.000;2023-07-22T13:48:34;3.83;;;3.50;;
2313;SDS011;42279;51.388;7.000;2023-07-22T13:51:00;3.40;;;3.30;;
2313;SDS011;42279;51.388;7.000;2023-07-22T13:53:26;3.17;;;3.17;;
2313;SDS011;42279;51.388;7.000;2023-07-22T13:55:52;2.53;;;2.53;;
2313;SDS011;42279;51.388;7.000;2023-07-22T13:58:18;3.00;;;2.90;;
2313;SDS011;42279;51.388;7.000;2023-07-22T14:00:44;2.50;;;2.50;;
2313;SDS011;42279;51.388;7.000;2023-07-22T14:03:10;3.10;;;3.10;;
2313;SDS011;42279;51.388;7.000;2023-07-22T14:05:36;2.63;;;2.53;;
2313;SDS011;42279;51.388;7.000;2023-07-22T14:08:02;3.10;;;3.10;;
2313;SDS011;42279;51.388;7.000;2023-07-22T14:10:28;4.03;;;3.90;;
2313;SDS011;42279;51.388;7.000;2023-07-22T14:12:54;3.80;;;3.80;;
2313;SDS011;42279;51.388;7.000;2023-07-22T14:15:19;3.70;;;3.60;;
2313;SDS011;42279;51.388;7.000;2023-07-22T14:17:48;3.03;;;3.03;;
2313;SDS011;42279;51.388;7.000;2023-07-22T14:20:14;3.80;;;3.70;;
2313;SDS011;42279;51.388;7.000;2023-07-22T14:22:40;3.33;;;3.33;;
2313;SDS011;42279;51.388;7.000;2023-07-22T14:25:07;6.43;;;3.10;;
2313;SDS011;42279;51.388;7.000;2023-07-22T14:27:33;3.37;;;3.27;;
2313;SDS011;42279;51.388;7.000;2023-07-22T14:30:00;4.30;;;4.10;;
2313;SDS011;42279;51.388;7.000;2023-07-22T14:32:26;4.30;;;4.20;;
2313;SDS011;42279;51.388;7.000;2023-07-22T14:34:52;3.00;;;3.00;;
2313;SDS011;42279;51.388;7.000;2023-07-22T14:37:18;3.83;;;3.53;;
2313;SDS011;42279;51.388;7.000;2023-07-22T14:39:44;4.20;;;4.10;;
2313;SDS011;42279;51.388;7.000;2023-07-22T14:42:10;3.67;;;3.40;;
2313;SDS011;42279;51.388;7.000;2023-07-22T14:44:36;4.20;;;3.90;;
2313;SDS011;42279;51.388;7.000;2023-07-22T14:47:02;3.97;;;3.87;;
2313;SDS011;42279;51.388;7.000;2023-07-22T14:49:28;4.03;;;3.93;;
2313;SDS011;42279;51.388;7.000;2023-07-22T14:51:54;3.20;;;3.13;;
2313;SDS011;42279;51.388;7.000;2023-07-22T14:54:21;4.43;;;4.13;;
2313;SDS011;42279;51.388;7.000;2023-07-22T14:56:47;3.67;;;3.37;;
2313;SDS011;42279;51.388;7.000;2023-07-22T14:59:14;3.93;;;3.73;;
2313;SDS011;42279;51.388;7.000;2023-07-22T15:01:40;3.97;;;3.80;;
2313;SDS011;42279;51.388;7.000;2023-07-22T15:04:06;4.10;;;3.70;;
2313;SDS011;42279;51.388;7.000;2023-07-22T15:06:32;3.83;;;3.73;;